Time;durP1;ratioP1;P1;durP2;ratioP2;P2;SDS_P1;SDS_P2;PMS_P1;PMS_P2;Temp;Humidity;BMP_temperature;BMP_pressure;BME280_temperature;BME280_humidity;BME280_pressure;Samples;Min_cycle;Max_cycle;Signal;HPM_P1;HPM_P2
2022/06/20 00:00:28;;;;;;;20.33;13.30;;;;;;;24.06;79.34;97360.84;4217322;28;20629;-89
2022/06/20 00:02:38;;;;;;;15.03;13.43;;;;;;;24.02;78.80;97354.28;4208937;28;20643;-89
2022/06/20 00:04:43;;;;;;;16.50;13.90;;;;;;;23.96;79.78;97354.28;4220939;28;20670;-89
2022/06/20 00:06:46;;;;;;;15.87;14.20;;;;;;;23.90;79.73;97361.25;4204379;28;20641;-89
2022/06/20 00:08:51;;;;;;;15.50;14.00;;;;;;;23.87;79.93;97371.50;4218610;28;20635;-89
2022/06/20 00:10:54;;;;;;;20.33;13.43;;;;;;;23.87;79.69;97371.50;4207021;28;20696;-89
2022/06/20 00:13:01;;;;;;;15.87;14.00;;;;;;;23.87;80.20;97364.31;4200425;28;21472;-89
2022/06/20 00:15:05;;;;;;;16.97;13.83;;;;;;;23.89;79.02;97370.28;4198361;28;20984;-89
2022/06/20 00:17:10;;;;;;;16.10;14.53;;;;;;;23.89;80.09;97369.44;4190463;28;20801;-89
2022/06/20 00:19:15;;;;;;;16.20;13.23;;;;;;;23.89;80.51;97369.44;4209690;28;20697;-89
2022/06/20 00:21:22;;;;;;;17.93;14.37;;;;;;;23.88;79.91;97379.28;4216143;28;20704;-89
2022/06/20 00:23:25;;;;;;;15.23;13.70;;;;;;;23.88;79.29;97373.16;4198810;28;20745;-89
2022/06/20 00:25:30;;;;;;;18.63;13.77;;;;;;;23.86;79.64;97377.84;4201776;28;20641;-89
2022/06/20 00:27:33;;;;;;;20.43;14.93;;;;;;;23.87;80.16;97372.31;4216243;28;20632;-89
2022/06/20 00:29:37;;;;;;;17.80;12.93;;;;;;;23.86;80.12;97375.19;4218792;28;20640;-89
2022/06/20 00:31:40;;;;;;;15.80;13.70;;;;;;;23.78;79.04;97378.06;4198605;28;21066;-89
2022/06/20 00:34:11;;;;;;;17.40;13.73;;;;;;;23.69;79.37;97368.63;4196484;28;20641;-89
2022/06/20 00:36:14;;;;;;;16.93;14.47;;;;;;;23.62;79.69;97366.94;4207964;28;20732;-89
2022/06/20 00:38:21;;;;;;;18.33;13.90;;;;;;;23.58;80.14;97365.72;4218977;28;20633;-89
2022/06/20 00:40:27;;;;;;;20.50;13.93;;;;;;;23.52;79.99;97364.66;4202210;28;21071;-89
2022/06/20 00:42:30;;;;;;;15.80;14.20;;;;;;;23.49;80.05;97366.94;4199726;28;20992;-89
2022/06/20 00:44:56;;;;;;;17.20;14.13;;;;;;;23.47;80.51;97361.81;4215841;28;20995;-89
2022/06/20 00:47:20;;;;;;;15.50;12.87;;;;;;;23.46;79.37;97364.66;4217936;28;21083;-89
2022/06/20 00:49:47;;;;;;;14.57;13.07;;;;;;;23.39;79.94;97355.81;4215771;28;20641;-89
2022/06/20 00:52:14;;;;;;;14.13;12.63;;;;;;;23.40;78.67;97360.16;4218945;28;20652;-89
2022/06/20 00:54:42;;;;;;;14.20;12.70;;;;;;;23.44;78.26;97359.53;4216774;28;24123;-89
2022/06/20 00:57:08;;;;;;;13.97;12.47;;;;;;;23.47;77.45;97356.47;4219458;28;20639;-89
2022/06/20 00:59:31;;;;;;;15.07;12.40;;;;;;;23.54;76.61;97351.16;4217975;28;20652;-89
2022/06/20 01:01:54;;;;;;;18.30;12.33;;;;;;;23.57;76.62;97353.41;4217338;28;20727;-89
2022/06/20 01:04:20;;;;;;;16.03;12.30;;;;;;;23.61;76.62;97360.78;4219266;28;20666;-89
2022/06/20 01:06:46;;;;;;;14.60;11.50;;;;;;;23.66;76.13;97352.22;4220518;28;21220;-89
2022/06/20 01:09:10;;;;;;;15.57;12.23;;;;;;;23.71;76.35;97361.25;4217708;28;20696;-89
2022/06/20 01:11:43;;;;;;;17.13;12.67;;;;;;;23.72;76.76;97373.53;4213874;28;20636;-89
2022/06/20 01:14:22;;;;;;;14.23;12.73;;;;;;;23.72;77.97;97384.19;4218030;28;20631;-89
2022/06/20 01:16:44;;;;;;;15.90;12.60;;;;;;;23.62;78.78;97399.72;4210247;28;20644;-89
2022/06/20 01:19:08;;;;;;;15.23;13.70;;;;;;;23.51;79.66;97418.13;4215736;28;20620;-89
2022/06/20 01:21:32;;;;;;;16.57;14.20;;;;;;;23.44;79.57;97411.94;4212973;28;21013;-89
2022/06/20 01:24:02;;;;;;;15.17;13.60;;;;;;;23.44;79.60;97420.78;4217653;28;20676;-89
2022/06/20 01:26:32;;;;;;;15.40;13.90;;;;;;;23.44;79.88;97407.47;4219866;28;21313;-89
2022/06/20 01:28:59;;;;;;;16.57;14.73;;;;;;;23.43;79.99;97428.97;4218963;28;20640;-89
2022/06/20 01:31:21;;;;;;;20.17;14.13;;;;;;;23.36;80.91;97426.28;4211725;28;20633;-89
2022/06/20 01:33:43;;;;;;;17.73;13.53;;;;;;;23.31;80.45;97426.06;4212708;28;21004;-88
2022/06/20 01:38:46;;;;;;;18.20;13.90;;;;;;;23.20;81.55;97396.53;4212590;28;20648;-88
2022/06/20 01:43:47;;;;;;;16.07;13.60;;;;;;;22.99;82.27;97382.53;4217507;28;20672;-88
2022/06/20 01:46:13;;;;;;;15.87;14.17;;;;;;;22.87;83.28;97366.28;4215540;28;20643;-88
2022/06/20 01:48:35;;;;;;;18.03;14.87;;;;;;;22.84;85.20;97371.19;4218074;28;20759;-88
2022/06/20 01:50:59;;;;;;;21.70;15.40;;;;;;;22.79;86.06;97374.44;4220943;28;20689;-88
2022/06/20 01:53:24;;;;;;;18.30;15.50;;;;;;;22.78;86.61;97374.63;4210923;28;20644;-88
2022/06/20 01:55:48;;;;;;;21.10;15.40;;;;;;;22.74;87.48;97381.34;4220473;28;22635;-88
2022/06/20 01:58:13;;;;;;;18.40;15.43;;;;;;;22.73;89.04;97369.91;4211500;28;20631;-88
2022/06/20 02:00:35;;;;;;;18.73;16.17;;;;;;;22.75;88.40;97377.69;4213238;28;20738;-88
2022/06/20 02:03:02;;;;;;;15.80;14.20;;;;;;;22.76;88.29;97374.00;4212644;28;20663;-88
2022/06/20 02:05:28;;;;;;;17.17;14.60;;;;;;;22.78;88.37;97379.94;4217695;28;20631;-88
2022/06/20 02:07:50;;;;;;;19.27;15.30;;;;;;;22.74;88.93;97392.00;4217546;28;20612;-88
2022/06/20 02:10:16;;;;;;;24.73;17.70;;;;;;;22.71;89.40;97381.75;4216930;28;20644;-88
2022/06/20 02:12:39;;;;;;;16.47;14.70;;;;;;;22.64;89.58;97372.91;4218393;28;20697;-88
2022/06/20 02:15:01;;;;;;;18.47;16.00;;;;;;;22.61;89.97;97375.16;4218289;28;21228;-88
2022/06/20 02:17:27;;;;;;;18.13;16.23;;;;;;;22.57;90.83;97376.56;4219318;28;20989;-88
2022/06/20 02:19:51;;;;;;;21.93;15.90;;;;;;;22.54;90.58;97380.44;4210894;28;21294;-88
2022/06/20 02:22:14;;;;;;;20.87;15.80;;;;;;;22.50;91.11;97384.47;4216607;28;20667;-88
2022/06/20 02:24:39;;;;;;;17.27;15.57;;;;;;;22.44;90.92;97379.94;4217970;28;21097;-88
2022/06/20 02:27:02;;;;;;;19.90;16.87;;;;;;;22.36;91.22;97366.81;4223195;28;21095;-88
2022/06/20 02:29:26;;;;;;;24.83;18.13;;;;;;;22.32;91.74;97370.88;4216057;28;20649;-88
2022/06/20 02:31:49;;;;;;;23.33;17.10;;;;;;;22.25;91.33;97369.19;4223808;28;20617;-88
2022/06/20 02:34:11;;;;;;;18.00;16.10;;;;;;;22.20;91.40;97357.47;4219240;28;20692;-88
2022/06/20 02:36:34;;;;;;;21.80;15.97;;;;;;;22.17;91.79;97350.72;4219276;28;20634;-88
2022/06/20 02:38:56;;;;;;;17.70;15.90;;;;;;;22.19;92.31;97356.66;4214557;28;20643;-88
2022/06/20 02:41:23;;;;;;;20.97;16.70;;;;;;;22.20;92.71;97344.19;4225170;27;21306;-88
2022/06/20 02:43:48;;;;;;;23.53;17.73;;;;;;;22.26;91.99;97344.25;4218026;28;21080;-88
2022/06/20 02:46:12;;;;;;;18.57;16.67;;;;;;;22.30;92.31;97346.34;4222523;28;20643;-88
2022/06/20 02:48:35;;;;;;;19.10;17.00;;;;;;;22.34;93.13;97352.91;4221613;28;20966;-88
2022/06/20 02:50:58;;;;;;;19.20;17.30;;;;;;;22.36;93.92;97350.88;4218392;28;20718;-88
2022/06/20 02:53:25;;;;;;;18.23;16.33;;;;;;;22.33;93.73;97355.75;4221376;28;20742;-89
2022/06/20 02:55:47;;;;;;;19.53;16.93;;;;;;;22.28;93.54;97352.84;4219160;28;21297;-88
2022/06/20 02:58:13;;;;;;;19.57;17.40;;;;;;;22.24;93.53;97363.06;4219489;28;20663;-89
2022/06/20 03:00:37;;;;;;;20.03;18.00;;;;;;;22.22;93.48;97366.09;4214751;28;20630;-89
2022/06/20 03:03:04;;;;;;;22.07;17.17;;;;;;;22.20;94.10;97366.25;4217105;28;20645;-88
2022/06/20 03:05:26;;;;;;;19.20;17.13;;;;;;;22.18;93.64;97372.81;4221167;28;20694;-88
2022/06/20 03:07:49;;;;;;;19.30;16.47;;;;;;;22.18;93.29;97394.06;4216640;28;20634;-88
2022/06/20 03:10:21;;;;;;;19.63;17.10;;;;;;;22.15;94.38;97421.03;4216034;28;20656;-88
2022/06/20 03:12:42;;;;;;;19.53;17.63;;;;;;;22.18;93.32;97442.72;4222642;28;20650;-88
2022/06/20 03:15:07;;;;;;;19.52;17.48;;;;;;;22.13;93.72;97455.75;4215078;27;20757;-89
2022/06/20 03:17:29;;;;;;;20.33;17.20;;;;;;;22.14;94.43;97465.34;4220440;28;20205;-88
2022/06/20 03:19:53;;;;;;;24.40;17.53;;;;;;;22.20;94.49;97451.31;4219830;27;20635;-87
2022/06/20 03:22:17;;;;;;;21.10;16.83;;;;;;;22.24;94.40;97436.66;4229920;27;20773;-89
2022/06/20 03:24:40;;;;;;;21.73;17.53;;;;;;;22.01;93.73;97433.38;4217512;28;20658;-88
2022/06/20 03:27:06;;;;;;;27.70;18.20;;;;;;;21.83;94.42;97433.00;4218486;28;20673;-88
2022/06/20 03:29:28;;;;;;;22.07;19.00;;;;;;;21.85;95.29;97438.94;4217585;28;20796;-88
2022/06/20 03:31:51;;;;;;;20.50;18.50;;;;;;;21.89;96.76;97442.03;4218421;28;21457;-88
2022/06/20 03:34:13;;;;;;;20.80;18.53;;;;;;;21.93;96.83;97437.97;4218747;28;20644;-88
2022/06/20 03:36:36;;;;;;;23.33;18.37;;;;;;;22.00;97.23;97473.41;4217737;28;20706;-88
2022/06/20 03:38:58;;;;;;;20.33;17.80;;;;;;;22.02;95.90;97468.72;4220256;28;20644;-88
2022/06/20 03:41:22;;;;;;;19.53;17.50;;;;;;;22.00;95.23;97465.44;4216225;28;20648;-88
2022/06/20 03:43:49;;;;;;;19.73;17.87;;;;;;;21.92;95.09;97460.22;4220743;28;20633;-88
2022/06/20 03:46:16;;;;;;;23.53;18.37;;;;;;;21.89;94.96;97474.75;4213493;28;20670;-88
2022/06/20 03:48:41;;;;;;;23.17;19.37;;;;;;;21.89;95.15;97464.13;4232193;27;20642;-88
2022/06/20 03:51:06;;;;;;;19.60;17.50;;;;;;;21.90;94.83;97467.59;4216902;28;20637;-87
2022/06/20 03:53:30;;;;;;;21.03;18.67;;;;;;;21.88;94.93;97467.78;4222756;28;20654;-89
2022/06/20 03:56:16;;;;;;;19.70;17.70;;;;;;;21.88;94.48;97481.06;4220038;28;21063;-88
2022/06/20 03:58:40;;;;;;;23.90;19.10;;;;;;;21.91;95.24;97490.47;4214310;28;20710;-88
2022/06/20 04:01:05;;;;;;;22.97;19.37;;;;;;;21.93;94.60;97518.47;4213058;28;20629;-88
2022/06/20 04:03:32;;;;;;;25.00;17.60;;;;;;;21.92;94.73;97521.31;4218017;28;20632;-88
2022/06/20 04:05:56;;;;;;;19.87;17.77;;;;;;;21.86;94.64;97517.63;4217844;28;20653;-88
2022/06/20 04:08:21;;;;;;;20.37;18.20;;;;;;;21.85;95.51;97520.47;4216683;28;20648;-88
2022/06/20 04:11:01;;;;;;;19.97;17.93;;;;;;;21.84;95.26;97530.25;4213510;28;20649;-88
2022/06/20 04:13:25;;;;;;;24.93;19.80;;;;;;;21.86;95.82;97541.53;4214342;28;20652;-87
2022/06/20 04:15:50;;;;;;;24.40;19.70;;;;;;;21.86;96.62;97538.88;4214718;28;20640;-87
2022/06/20 04:18:29;;;;;;;19.80;17.80;;;;;;;21.88;95.01;97541.31;4217905;27;20640;-87
2022/06/20 04:20:53;;;;;;;21.40;17.23;;;;;;;21.94;96.26;97543.22;4220907;28;20629;-88
2022/06/20 04:23:18;;;;;;;22.83;18.77;;;;;;;21.95;95.73;97534.22;4217018;28;20621;-87
2022/06/20 04:25:45;;;;;;;22.33;18.33;;;;;;;21.97;96.33;97551.63;4215800;28;20713;-88
2022/06/20 04:28:13;;;;;;;25.67;20.00;;;;;;;21.98;96.44;97545.34;4214500;28;20649;-88
2022/06/20 04:30:39;;;;;;;20.90;18.70;;;;;;;22.03;96.54;97545.56;4218906;27;21013;-87
2022/06/20 04:33:04;;;;;;;21.80;19.40;;;;;;;22.06;96.22;97550.50;4216875;28;20630;-88
2022/06/20 04:35:30;;;;;;;23.53;18.90;;;;;;;22.05;95.92;97543.53;4210899;28;20639;-88
2022/06/20 04:37:56;;;;;;;21.67;18.83;;;;;;;22.07;95.84;97536.22;4216790;28;20644;-88
2022/06/20 04:40:19;;;;;;;21.10;18.70;;;;;;;22.07;96.10;97543.34;4218045;28;20631;-88
2022/06/20 04:42:45;;;;;;;23.93;20.27;;;;;;;22.06;96.61;97557.66;4218340;28;20629;-87
2022/06/20 04:45:13;;;;;;;21.30;19.00;;;;;;;22.06;96.50;97555.00;4216064;28;20664;-88
2022/06/20 04:47:40;;;;;;;22.00;19.00;;;;;;;22.07;97.23;97549.50;4213629;28;21254;-88
2022/06/20 04:50:02;;;;;;;22.90;18.97;;;;;;;22.09;97.38;97541.34;4214618;28;21220;-88
2022/06/20 04:52:27;;;;;;;21.90;18.70;;;;;;;22.13;98.07;97550.56;4215344;28;20743;-87
2022/06/20 04:54:49;;;;;;;22.33;19.93;;;;;;;22.15;97.98;97572.50;4214156;28;20728;-88
2022/06/20 04:57:13;;;;;;;24.10;19.97;;;;;;;22.19;98.82;97600.31;4217875;28;20737;-88
2022/06/20 04:59:35;;;;;;;26.73;21.20;;;;;;;22.20;98.96;97618.72;4218174;27;21231;-87
2022/06/20 05:01:58;;;;;;;23.57;20.17;;;;;;;22.18;99.09;97619.94;4215866;28;20702;-88
2022/06/20 05:04:28;;;;;;;28.33;21.73;;;;;;;22.17;98.86;97621.75;4221141;28;21233;-88
2022/06/20 05:06:50;;;;;;;24.60;19.40;;;;;;;22.14;97.98;97606.19;4218778;28;20663;-88
2022/06/20 05:09:17;;;;;;;21.63;18.83;;;;;;;22.13;97.85;97578.00;4215276;28;21356;-87
2022/06/20 05:11:42;;;;;;;22.60;18.63;;;;;;;22.15;97.67;97564.53;4214642;28;22043;-87
2022/06/20 05:14:07;;;;;;;26.03;18.73;;;;;;;22.19;97.04;97566.59;4215690;28;20625;-88
2022/06/20 05:16:31;;;;;;;23.17;18.50;;;;;;;22.22;97.15;97586.69;4217243;28;20646;-87
2022/06/20 05:18:55;;;;;;;24.67;18.37;;;;;;;22.25;96.95;97603.06;4219768;28;21258;-87
2022/06/20 05:21:20;;;;;;;20.90;17.93;;;;;;;22.27;96.88;97583.28;4216228;28;20699;-90
2022/06/20 05:23:44;;;;;;;23.20;19.53;;;;;;;22.23;97.25;97568.69;4213533;28;20636;-85
2022/06/20 05:26:09;;;;;;;23.83;18.60;;;;;;;22.22;98.09;97584.84;4218184;28;20668;-84
2022/06/20 05:28:32;;;;;;;23.87;17.73;;;;;;;22.26;98.67;97592.25;4213086;28;20718;-84
2022/06/20 05:30:55;;;;;;;22.20;18.60;;;;;;;22.32;98.40;97601.31;4216824;28;20629;-85
2022/06/20 05:33:19;;;;;;;25.37;19.27;;;;;;;22.39;98.25;97591.56;4221693;28;21214;-84
2022/06/20 05:35:33;;;;;;;25.67;19.13;;;;;;;22.42;98.93;97594.66;4204648;28;21041;-84
2022/06/20 05:37:40;;;;;;;23.13;18.57;;;;;;;22.49;99.27;97595.56;4217617;28;20656;-84
2022/06/20 05:39:48;;;;;;;22.90;18.73;;;;;;;22.56;99.72;97601.75;4215663;28;20644;-84
2022/06/20 05:41:53;;;;;;;25.13;19.20;;;;;;;22.61;99.05;97609.97;4197063;28;21218;-84
2022/06/20 05:43:57;;;;;;;22.97;19.47;;;;;;;22.69;99.76;97617.00;4219267;28;20634;-85
2022/06/20 05:46:03;;;;;;;24.00;19.70;;;;;;;22.74;99.64;97599.47;4200902;28;20648;-83
2022/06/20 05:48:11;;;;;;;22.63;17.40;;;;;;;22.78;98.44;97590.91;4217282;28;20636;-81
2022/06/20 05:50:28;;;;;;;21.47;17.23;;;;;;;22.82;97.74;97589.53;4203969;28;21531;-82
2022/06/20 05:52:32;;;;;;;25.20;19.07;;;;;;;22.83;98.76;97596.47;4201374;28;20630;-82
2022/06/20 05:54:40;;;;;;;23.90;19.43;;;;;;;22.83;97.85;97599.13;4219638;28;20635;-82
2022/06/20 05:56:45;;;;;;;21.83;19.40;;;;;;;22.78;97.65;97611.38;4201467;28;20661;-85
2022/06/20 05:58:50;;;;;;;24.30;19.10;;;;;;;22.74;97.07;97620.75;4200974;28;20650;-84
2022/06/20 06:00:56;;;;;;;23.03;20.47;;;;;;;22.73;98.16;97640.38;4215718;28;21088;-83
2022/06/20 06:03:01;;;;;;;28.60;23.80;;;;;;;22.74;98.66;97648.16;4207648;28;20636;-84
2022/06/20 06:05:10;;;;;;;25.67;19.80;;;;;;;22.78;98.60;97648.63;4204036;28;20624;-83
2022/06/20 06:07:16;;;;;;;24.30;19.30;;;;;;;22.77;98.33;97634.47;4220887;28;20659;-83
2022/06/20 06:09:22;;;;;;;20.80;18.60;;;;;;;22.70;97.34;97635.44;4207384;28;22085;-84
2022/06/20 06:11:30;;;;;;;25.40;19.00;;;;;;;22.72;97.99;97644.06;4206994;28;20630;-83
2022/06/20 06:13:37;;;;;;;27.50;20.00;;;;;;;22.77;98.37;97653.09;4206237;28;20645;-83
2022/06/20 06:18:51;;;;;;;30.53;22.43;;;;;;;22.88;98.78;97671.22;4213104;28;20642;-82
2022/06/20 06:20:56;;;;;;;24.80;22.17;;;;;;;22.92;99.05;97661.84;4206022;28;20638;-83
2022/06/20 06:23:04;;;;;;;25.57;19.53;;;;;;;22.93;97.55;97652.88;4226314;27;20632;-83
2022/06/20 06:25:20;;;;;;;24.70;18.50;;;;;;;23.00;97.17;97648.41;4207751;28;20629;-82
2022/06/20 06:27:25;;;;;;;25.73;18.97;;;;;;;23.06;98.18;97631.69;4219173;28;20707;-82
2022/06/20 06:29:37;;;;;;;25.70;19.60;;;;;;;23.12;97.56;97635.41;4205819;28;20737;-84
2022/06/20 06:31:42;;;;;;;22.00;19.33;;;;;;;23.19;96.94;97636.31;4221239;28;20629;-84
2022/06/20 06:33:49;;;;;;;22.53;18.63;;;;;;;23.26;97.47;97649.47;4202677;28;21214;-83
2022/06/20 06:35:56;;;;;;;21.17;17.70;;;;;;;23.28;96.33;97649.28;4207720;28;21227;-84
2022/06/20 06:38:03;;;;;;;24.27;20.17;;;;;;;23.29;95.70;97646.41;4205064;28;20664;-84
2022/06/20 06:40:12;;;;;;;22.00;18.20;;;;;;;23.24;95.81;97640.00;4205933;28;20716;-85
2022/06/20 06:42:16;;;;;;;21.57;16.10;;;;;;;23.22;95.42;97648.19;4223210;27;20695;-84
2022/06/20 06:44:24;;;;;;;24.57;18.53;;;;;;;23.19;95.39;97648.56;4193411;28;21218;-83
2022/06/20 06:46:33;;;;;;;19.47;17.57;;;;;;;23.16;95.95;97634.03;4201168;28;20700;-83
2022/06/20 06:48:40;;;;;;;23.43;17.30;;;;;;;23.19;95.64;97621.16;4219329;28;20667;-83
2022/06/20 06:50:47;;;;;;;24.17;18.17;;;;;;;23.18;95.72;97622.16;4204585;28;20776;-83
2022/06/20 06:52:52;;;;;;;21.37;17.70;;;;;;;23.20;95.02;97625.47;4204813;28;20635;-83
2022/06/20 06:54:58;;;;;;;21.00;17.13;;;;;;;23.31;95.86;97625.72;4209629;28;20667;-83
2022/06/20 06:57:04;;;;;;;22.03;19.27;;;;;;;23.88;97.00;97629.78;4219595;28;21220;-83
2022/06/20 06:59:13;;;;;;;19.93;17.70;;;;;;;24.30;94.74;97633.03;4200041;28;20686;-83
2022/06/20 07:01:20;;;;;;;20.90;18.00;;;;;;;24.71;94.73;97645.25;4211365;28;20720;-83
2022/06/20 07:03:27;;;;;;;20.07;17.43;;;;;;;25.23;90.03;97651.47;4209868;28;20640;-83
2022/06/20 07:05:35;;;;;;;20.30;17.30;;;;;;;25.25;89.73;97654.75;4215035;28;20751;-83
2022/06/20 07:07:43;;;;;;;23.23;18.53;;;;;;;25.17;89.92;97657.63;4208871;28;20660;-83
2022/06/20 07:09:48;;;;;;;22.43;17.40;;;;;;;25.21;88.59;97666.91;4207627;28;21244;-83
2022/06/20 07:11:57;;;;;;;20.80;18.00;;;;;;;25.12;89.54;97664.63;4215028;28;20688;-83
2022/06/20 07:14:03;;;;;;;20.37;16.80;;;;;;;25.03;89.93;97662.34;4198193;28;21263;-84
2022/06/20 07:16:16;;;;;;;22.77;18.67;;;;;;;24.92;89.83;97670.94;4196106;28;20640;-83
2022/06/20 07:18:32;;;;;;;25.10;19.77;;;;;;;24.75;89.46;97678.50;4202999;28;21223;-83
2022/06/20 07:20:39;;;;;;;22.70;18.53;;;;;;;24.71;89.76;97679.13;4207411;28;20694;-83
2022/06/20 07:22:44;;;;;;;23.83;18.33;;;;;;;25.05;89.22;97692.34;4217604;28;20753;-83
2022/06/20 07:24:47;;;;;;;22.80;17.93;;;;;;;25.39;89.28;97691.09;4202910;28;20626;-83
2022/06/20 07:26:54;;;;;;;22.10;18.00;;;;;;;25.98;89.21;97697.22;4213920;28;20645;-84
2022/06/20 07:29:00;;;;;;;20.47;15.30;;;;;;;26.45;85.04;97697.72;4211133;28;20642;-84
2022/06/20 07:31:10;;;;;;;20.30;15.03;;;;;;;26.83;83.17;97692.13;4217820;28;21273;-83
2022/06/20 07:33:18;;;;;;;18.23;14.57;;;;;;;27.12;82.42;97688.88;4218123;28;20673;-83
2022/06/20 07:35:33;;;;;;;18.97;16.80;;;;;;;27.42;81.04;97692.56;4218989;28;20974;-84
2022/06/20 07:37:45;;;;;;;19.23;15.90;;;;;;;27.63;81.35;97691.19;4204153;28;20680;-84
2022/06/20 07:39:52;;;;;;;17.97;14.00;;;;;;;27.85;77.76;97702.31;4218220;28;20627;-84
2022/06/20 07:41:58;;;;;;;18.90;13.53;;;;;;;28.01;79.95;97699.88;4200856;28;21268;-83
2022/06/20 07:44:04;;;;;;;17.63;12.80;;;;;;;28.08;76.78;97696.06;4210758;28;20638;-85
2022/06/20 07:46:22;;;;;;;16.57;14.20;;;;;;;28.22;78.70;97694.06;4205720;28;20997;-85
2022/06/20 07:48:29;;;;;;;14.70;13.30;;;;;;;28.44;78.11;97696.06;4219279;28;20659;-86
2022/06/20 07:50:36;;;;;;;16.70;14.13;;;;;;;28.63;77.07;97697.69;4217127;28;20775;-85
2022/06/20 07:52:43;;;;;;;16.73;14.57;;;;;;;28.83;76.60;97687.53;4218937;28;20669;-84
2022/06/20 07:54:50;;;;;;;16.90;14.07;;;;;;;28.95;73.94;97686.50;4204587;28;20750;-84
2022/06/20 07:56:57;;;;;;;16.50;14.00;;;;;;;29.00;73.07;97684.78;4200672;28;21243;-85
2022/06/20 07:59:04;;;;;;;18.60;14.17;;;;;;;29.11;76.77;97694.75;4204046;28;20670;-83
2022/06/20 08:01:18;;;;;;;15.00;12.77;;;;;;;29.20;73.38;97693.38;4219819;28;20776;-88
2022/06/20 08:03:26;;;;;;;14.83;13.27;;;;;;;29.27;73.75;97704.84;4225179;28;20639;-86
2022/06/20 08:05:33;;;;;;;17.30;13.50;;;;;;;29.39;75.00;97694.94;4208500;28;21013;-86
2022/06/20 08:07:41;;;;;;;15.70;11.87;;;;;;;29.47;72.49;97705.38;4223187;28;20669;-87
2022/06/20 08:09:51;;;;;;;16.17;12.50;;;;;;;29.60;72.42;97705.13;4211480;28;20636;-87
2022/06/20 08:12:20;;;;;;;17.33;12.13;;;;;;;29.58;70.76;97718.00;4201289;28;20641;-86
2022/06/20 08:14:30;;;;;;;14.27;12.30;;;;;;;29.58;72.22;97713.44;4203068;28;20626;-86
2022/06/20 08:16:35;;;;;;;14.43;11.03;;;;;;;29.46;71.92;97709.09;4202350;28;20665;-86
2022/06/20 08:18:41;;;;;;;13.70;10.37;;;;;;;29.54;71.03;97717.66;4217274;28;20675;-87
2022/06/20 08:20:49;;;;;;;15.43;10.43;;;;;;;29.62;69.96;97709.25;4219169;28;20634;-88
2022/06/20 08:23:16;;;;;;;12.30;10.33;;;;;;;29.86;68.71;97723.56;4223266;28;21237;-84
2022/06/20 08:25:23;;;;;;;16.27;10.50;;;;;;;29.97;70.83;97729.75;4212108;28;20674;-83
2022/06/20 08:27:31;;;;;;;15.00;9.60;;;;;;;30.04;69.98;97725.09;4203962;28;21291;-83
2022/06/20 08:29:38;;;;;;;16.57;8.13;;;;;;;30.04;69.55;97729.63;4207451;28;20723;-83
2022/06/20 08:31:48;;;;;;;16.40;9.03;;;;;;;30.23;69.43;97728.44;4218134;28;20736;-83
2022/06/20 08:33:55;;;;;;;14.63;8.07;;;;;;;30.39;66.79;97722.38;4205043;28;20673;-83
2022/06/20 08:36:04;;;;;;;11.40;7.80;;;;;;;30.49;67.80;97724.22;4213427;28;20637;-83
2022/06/20 08:38:10;;;;;;;12.00;8.60;;;;;;;30.57;66.10;97731.94;4213340;28;22431;-83
2022/06/20 08:40:30;;;;;;;14.43;8.03;;;;;;;30.60;65.12;97719.88;4217989;28;21207;-83
2022/06/20 08:43:09;;;;;;;13.20;8.63;;;;;;;30.53;65.44;97719.16;4216610;28;20632;-83
2022/06/20 08:45:42;;;;;;;11.60;8.60;;;;;;;30.63;63.84;97716.69;4179177;28;20699;-83
2022/06/20 08:48:30;;;;;;;13.50;9.20;;;;;;;30.72;65.84;97726.03;4213251;28;20648;-83
2022/06/20 08:50:58;;;;;;;18.00;8.60;;;;;;;30.82;64.60;97710.84;4207550;28;20661;-83
2022/06/20 08:53:22;;;;;;;12.10;8.20;;;;;;;30.87;65.56;97713.72;4174542;28;21199;-83
2022/06/20 08:55:42;;;;;;;11.37;8.40;;;;;;;30.69;61.40;97718.44;4171162;28;20691;-83
2022/06/20 08:57:52;;;;;;;13.50;8.47;;;;;;;30.59;63.85;97723.59;4224885;28;20724;-83
2022/06/20 09:00:16;;;;;;;11.43;8.30;;;;;;;30.67;62.51;97717.84;4211044;28;20667;-83
2022/06/20 09:02:59;;;;;;;11.90;9.00;;;;;;;30.66;62.39;97718.91;4208526;28;20758;-83
2022/06/20 09:05:18;;;;;;;13.07;9.40;;;;;;;30.69;65.00;97713.03;4208575;28;20662;-83
2022/06/20 09:07:51;;;;;;;15.07;8.70;;;;;;;30.79;63.53;97713.22;4216935;28;20629;-83
2022/06/20 09:10:31;;;;;;;14.27;9.03;;;;;;;30.82;62.88;97701.97;4195969;28;20658;-84
2022/06/20 09:12:53;;;;;;;9.80;8.30;;;;;;;30.86;61.76;97709.31;4215636;28;20678;-84
2022/06/20 09:15:16;;;;;;;13.70;9.80;;;;;;;30.78;61.64;97700.81;4206149;28;20748;-82
2022/06/20 09:17:24;;;;;;;9.53;8.53;;;;;;;30.76;62.88;97708.31;4196970;28;20650;-83
2022/06/20 09:19:47;;;;;;;11.03;9.30;;;;;;;30.81;62.63;97713.78;4201768;28;20648;-83
2022/06/20 09:22:06;;;;;;;12.80;9.53;;;;;;;30.88;62.55;97711.81;4203016;28;20771;-83
2022/06/20 09:24:22;;;;;;;11.20;8.97;;;;;;;30.92;62.67;97712.97;4200127;28;21028;-83
2022/06/20 09:26:31;;;;;;;15.13;9.67;;;;;;;30.92;63.13;97708.41;4210859;28;20734;-83
2022/06/20 09:28:49;;;;;;;11.77;9.00;;;;;;;30.98;63.67;97718.22;4203056;28;20821;-83
2022/06/20 09:30:58;;;;;;;14.37;9.40;;;;;;;30.98;60.79;97719.03;4202819;28;20687;-83
2022/06/20 09:33:36;;;;;;;12.00;8.80;;;;;;;30.99;61.58;97714.47;4215296;28;21041;-83
2022/06/20 09:36:00;;;;;;;13.40;9.10;;;;;;;31.06;62.58;97713.28;4218015;28;20654;-83
2022/06/20 09:38:35;;;;;;;10.23;8.87;;;;;;;31.16;63.49;97712.63;4219254;28;20620;-83
2022/06/20 09:40:41;;;;;;;12.73;8.97;;;;;;;31.28;63.24;97718.78;4201876;27;20681;-83
2022/06/20 09:42:49;;;;;;;11.50;9.53;;;;;;;31.36;61.63;97711.09;4211910;28;20630;-83
2022/06/20 09:45:01;;;;;;;11.47;8.70;;;;;;;31.38;60.54;97712.50;4218464;28;20647;-83
2022/06/20 09:47:14;;;;;;;10.93;8.63;;;;;;;31.41;62.32;97719.31;4205675;28;20635;-83
2022/06/20 09:49:23;;;;;;;14.17;8.90;;;;;;;31.47;60.84;97718.34;4221842;28;21034;-83
2022/06/20 09:51:34;;;;;;;10.63;8.63;;;;;;;31.56;61.26;97723.09;4201115;28;20745;-82
2022/06/20 09:53:53;;;;;;;13.40;8.83;;;;;;;31.59;62.87;97722.59;4209792;28;20721;-83
2022/06/20 09:56:00;;;;;;;16.53;9.00;;;;;;;31.48;59.31;97717.25;4204062;28;21202;-83
2022/06/20 09:58:09;;;;;;;12.90;9.07;;;;;;;31.48;62.41;97720.78;4220324;28;20700;-83
2022/06/20 10:00:18;;;;;;;16.23;10.07;;;;;;;31.63;61.31;97712.91;4220163;28;20634;-83
2022/06/20 10:02:27;;;;;;;12.13;8.60;;;;;;;31.66;60.27;97714.31;4202598;28;21334;-83
2022/06/20 10:04:35;;;;;;;14.93;9.40;;;;;;;31.64;59.58;97717.28;4217821;28;20635;-84
2022/06/20 10:07:07;;;;;;;10.87;8.60;;;;;;;31.55;58.24;97710.63;4193755;28;20623;-83
2022/06/20 10:09:15;;;;;;;11.20;9.20;;;;;;;31.39;59.89;97716.00;4215895;28;20727;-83
2022/06/20 10:11:23;;;;;;;10.03;8.13;;;;;;;31.42;60.45;97710.13;4211217;28;20717;-83
2022/06/20 10:13:31;;;;;;;9.73;8.50;;;;;;;31.48;61.60;97707.31;4215072;28;21030;-83
2022/06/20 10:15:41;;;;;;;17.03;9.30;;;;;;;31.42;59.46;97710.97;4200789;28;21288;-83
2022/06/20 10:17:50;;;;;;;13.60;9.97;;;;;;;31.59;61.05;97710.97;4223864;28;21085;-83
2022/06/20 10:20:00;;;;;;;12.80;8.70;;;;;;;31.76;60.08;97709.09;4207226;28;20720;-83
2022/06/20 10:22:09;;;;;;;11.60;8.37;;;;;;;31.72;60.41;97706.06;4217655;28;21031;-83
2022/06/20 10:24:28;;;;;;;13.03;8.50;;;;;;;31.62;57.01;97710.47;4216436;28;20625;-83
2022/06/20 10:26:59;;;;;;;11.70;8.00;;;;;;;31.61;59.54;97712.34;4216585;27;20629;-83
2022/06/20 10:29:11;;;;;;;12.90;8.70;;;;;;;31.61;60.44;97717.75;4216824;28;20647;-83
2022/06/20 10:31:28;;;;;;;10.87;8.13;;;;;;;31.55;60.44;97710.63;4205071;28;21221;-83
2022/06/20 10:34:15;;;;;;;9.33;8.33;;;;;;;31.66;60.63;97707.03;4134714;28;21207;-83
2022/06/20 10:36:22;;;;;;;9.20;7.80;;;;;;;31.67;59.08;97714.06;4122001;28;20690;-83
2022/06/20 10:38:38;;;;;;;13.60;7.77;;;;;;;31.45;58.42;97706.97;4108478;28;20639;-83
2022/06/20 10:40:48;;;;;;;12.57;8.80;;;;;;;31.03;58.51;97708.34;4217165;28;20645;-83